createdAt,value
2022-08-25T00:00:14.685Z,5.55
2022-08-25T00:03:01.843Z,6.70
2022-08-25T00:05:32.332Z,6.38
2022-08-25T00:08:02.940Z,7.72
2022-08-25T00:10:30.486Z,7.28
2022-08-25T00:12:57.944Z,7.15
2022-08-25T00:15:25.630Z,6.95
2022-08-25T00:17:52.996Z,4.45
2022-08-25T00:20:20.955Z,4.68
2022-08-25T00:22:49.434Z,6.50
2022-08-25T00:25:16.970Z,6.03
2022-08-25T00:27:44.734Z,6.82
2022-08-25T00:30:15.960Z,7.30
2022-08-25T00:32:44.436Z,6.78
2022-08-25T00:35:23.581Z,7.18
2022-08-25T00:37:50.799Z,8.43
2022-08-25T00:40:18.496Z,6.57
2022-08-25T00:42:46.767Z,6.13
2022-08-25T00:45:14.029Z,5.00
2022-08-25T00:47:41.553Z,4.53
2022-08-25T00:50:11.749Z,4.93
2022-08-25T00:52:45.824Z,4.55
2022-08-25T00:55:25.617Z,4.55
2022-08-25T00:58:16.058Z,5.40
2022-08-25T01:00:49.778Z,5.55
2022-08-25T01:03:19.265Z,7.70
2022-08-25T01:05:48.024Z,6.65
2022-08-25T01:08:19.678Z,6.32
2022-08-25T01:10:50.281Z,6.05
2022-08-25T01:13:29.155Z,4.00
2022-08-25T01:15:58.833Z,4.40
2022-08-25T01:18:28.487Z,5.25
2022-08-25T01:20:58.499Z,7.78
2022-08-25T01:23:27.092Z,6.85
2022-08-25T01:26:09.339Z,7.95
2022-08-25T01:28:37.622Z,8.35
2022-08-25T01:31:24.030Z,6.68
2022-08-25T01:33:51.971Z,6.43
2022-08-25T01:36:21.893Z,7.63
2022-08-25T01:38:49.660Z,8.20
2022-08-25T01:41:51.434Z,6.82
2022-08-25T01:44:19.355Z,6.45
2022-08-25T01:46:46.648Z,5.82
2022-08-25T01:49:13.869Z,5.60
2022-08-25T01:51:51.455Z,6.15
2022-08-25T01:54:18.878Z,6.10
2022-08-25T01:56:46.370Z,6.45
2022-08-25T01:59:21.637Z,5.93
2022-08-25T02:02:00.193Z,7.13
2022-08-25T02:04:32.360Z,7.05
2022-08-25T02:07:03.747Z,5.82
2022-08-25T02:09:30.985Z,6.43
2022-08-25T02:11:58.293Z,6.72
2022-08-25T02:14:26.378Z,6.38
2022-08-25T02:16:55.253Z,7.22
2022-08-25T02:19:24.891Z,6.13
2022-08-25T02:21:52.923Z,5.72
2022-08-25T02:24:20.902Z,5.30
2022-08-25T02:26:48.981Z,7.30
2022-08-25T02:29:17.334Z,6.88
2022-08-25T02:31:45.959Z,6.70
2022-08-25T02:34:14.343Z,7.05
2022-08-25T02:36:43.864Z,6.75
2022-08-25T02:39:13.101Z,4.95
2022-08-25T02:41:40.875Z,4.85
2022-08-25T02:44:09.215Z,5.10
2022-08-25T02:46:38.752Z,5.78
2022-08-25T02:49:07.713Z,7.00
2022-08-25T02:51:36.310Z,6.32
2022-08-25T02:54:06.227Z,6.63
2022-08-25T02:56:34.059Z,6.60
2022-08-25T02:59:02.980Z,4.85
2022-08-25T03:01:32.637Z,4.32
2022-08-25T03:04:02.123Z,4.90
2022-08-25T03:06:29.787Z,5.47
2022-08-25T03:08:57.500Z,6.57
2022-08-25T03:11:26.698Z,7.13
2022-08-25T03:13:54.703Z,5.85
2022-08-25T03:16:22.792Z,7.03
2022-08-25T03:18:55.819Z,7.13
2022-08-25T03:21:23.389Z,7.80
2022-08-25T03:23:51.045Z,9.68
2022-08-25T03:26:36.999Z,16.52
2022-08-25T03:29:07.673Z,14.07
2022-08-25T03:31:36.711Z,11.32
2022-08-25T03:34:04.668Z,13.88
2022-08-25T03:36:31.909Z,16.08
2022-08-25T03:39:00.483Z,15.63
2022-08-25T03:41:32.791Z,16.55
2022-08-25T03:44:02.239Z,20.63
2022-08-25T03:46:35.051Z,15.50
2022-08-25T03:49:06.547Z,19.05
2022-08-25T03:51:40.484Z,28.15
2022-08-25T03:54:10.586Z,17.77
2022-08-25T03:56:38.691Z,16.90
2022-08-25T03:59:09.152Z,17.80
2022-08-25T04:01:39.151Z,23.90
2022-08-25T04:04:09.477Z,24.08
2022-08-25T04:06:38.679Z,21.15
2022-08-25T04:09:06.681Z,15.68
2022-08-25T04:11:34.455Z,12.55
2022-08-25T04:14:02.715Z,15.20
2022-08-25T04:16:33.933Z,15.73
2022-08-25T04:19:06.213Z,11.13
2022-08-25T04:21:33.779Z,10.30
2022-08-25T04:24:00.977Z,12.60
2022-08-25T04:26:33.719Z,10.15
2022-08-25T04:29:04.031Z,9.75
2022-08-25T04:31:32.368Z,8.38
2022-08-25T04:34:04.227Z,7.32
2022-08-25T04:36:42.285Z,17.38
2022-08-25T04:39:09.559Z,22.92
2022-08-25T04:41:38.934Z,16.90
2022-08-25T04:44:07.207Z,16.25
2022-08-25T04:46:35.695Z,12.50
2022-08-25T04:49:04.419Z,10.25
2022-08-25T04:51:36.981Z,7.35
2022-08-25T04:54:10.057Z,21.30
2022-08-25T04:56:40.761Z,20.75
2022-08-25T04:59:12.611Z,32.90
2022-08-25T05:01:42.776Z,29.23
2022-08-25T05:04:27.842Z,35.03
2022-08-25T05:06:58.514Z,55.05
2022-08-25T05:09:26.859Z,33.70
2022-08-25T05:11:54.938Z,25.95
2022-08-25T05:14:26.380Z,18.52
2022-08-25T05:16:55.972Z,13.85
2022-08-25T05:19:24.586Z,9.48
2022-08-25T05:21:52.787Z,7.85
2022-08-25T05:24:22.288Z,6.47
2022-08-25T05:26:50.066Z,6.53
2022-08-25T05:29:17.611Z,7.40
2022-08-25T05:31:50.053Z,7.65
2022-08-25T05:34:19.717Z,5.47
2022-08-25T05:36:48.652Z,17.77
2022-08-25T05:39:16.335Z,10.52
2022-08-25T05:41:44.403Z,8.25
2022-08-25T05:44:12.953Z,7.65
2022-08-25T05:46:40.195Z,9.60
2022-08-25T05:49:07.699Z,13.85
2022-08-25T05:51:34.859Z,11.40
2022-08-25T05:54:02.129Z,9.52
2022-08-25T05:56:30.141Z,9.05
2022-08-25T05:58:57.342Z,7.43
2022-08-25T06:01:48.460Z,7.50
2022-08-25T06:04:18.145Z,6.18
2022-08-25T06:06:45.359Z,5.97
2022-08-25T06:09:12.720Z,6.15
2022-08-25T06:11:41.422Z,8.35
2022-08-25T06:14:10.889Z,8.45
2022-08-25T06:16:40.312Z,10.48
2022-08-25T06:19:10.297Z,12.93
2022-08-25T06:21:40.964Z,17.85
2022-08-25T06:24:15.180Z,12.20
2022-08-25T06:26:44.260Z,9.13
2022-08-25T06:29:14.189Z,6.55
2022-08-25T06:31:42.685Z,6.32
2022-08-25T06:34:11.849Z,6.50
2022-08-25T06:36:40.605Z,5.20
2022-08-25T06:39:09.191Z,7.32
2022-08-25T06:41:38.843Z,5.60
2022-08-25T06:44:06.793Z,4.82
2022-08-25T06:46:36.132Z,4.50
2022-08-25T06:49:06.736Z,4.75
2022-08-25T06:51:38.238Z,4.68
2022-08-25T06:54:08.153Z,5.43
2022-08-25T06:56:36.783Z,5.70
2022-08-25T06:59:07.322Z,5.18
2022-08-25T07:01:35.270Z,5.28
2022-08-25T07:04:10.325Z,7.28
2022-08-25T07:06:39.678Z,6.85
2022-08-25T07:09:10.873Z,7.95
2022-08-25T07:11:40.768Z,6.85
2022-08-25T07:14:11.850Z,8.20
2022-08-25T07:16:41.762Z,6.45
2022-08-25T07:19:15.070Z,4.72
2022-08-25T07:21:45.908Z,6.55
2022-08-25T07:24:14.945Z,6.63
2022-08-25T07:26:44.354Z,5.78
2022-08-25T07:29:15.920Z,5.35
2022-08-25T07:31:43.575Z,5.60
2022-08-25T07:34:29.744Z,4.95
2022-08-25T07:36:58.289Z,5.38
2022-08-25T07:39:29.013Z,4.50
2022-08-25T07:41:56.848Z,5.45
2022-08-25T07:44:27.983Z,4.20
2022-08-25T07:46:56.470Z,4.97
2022-08-25T07:49:26.582Z,5.22
2022-08-25T07:52:06.497Z,4.75
2022-08-25T07:54:37.993Z,5.30
2022-08-25T07:57:08.701Z,5.75
2022-08-25T07:59:41.432Z,14.60
2022-08-25T08:02:17.945Z,12.32
2022-08-25T08:04:53.860Z,11.93
2022-08-25T08:07:41.864Z,6.10
2022-08-25T08:13:07.007Z,4.93
2022-08-25T08:15:36.192Z,5.28
2022-08-25T08:18:05.345Z,4.90
2022-08-25T08:20:42.275Z,4.70
2022-08-25T08:23:12.067Z,4.45
2022-08-25T08:25:39.362Z,6.65
2022-08-25T08:28:07.071Z,4.97
2022-08-25T08:30:36.739Z,5.03
2022-08-25T08:33:10.207Z,4.90
2022-08-25T08:35:41.604Z,4.30
2022-08-25T08:38:16.123Z,5.50
2022-08-25T08:42:11.592Z,4.60
2022-08-25T08:44:45.403Z,5.32
2022-08-25T08:48:01.073Z,4.80
2022-08-25T08:50:54.711Z,4.43
2022-08-25T08:53:46.481Z,5.80
2022-08-25T08:56:57.601Z,6.07
2022-08-25T08:59:35.356Z,5.05
2022-08-25T09:02:06.178Z,4.93
2022-08-25T09:04:59.487Z,4.60
2022-08-25T09:07:41.274Z,5.38
2022-08-25T09:10:11.137Z,5.60
2022-08-25T09:13:19.526Z,6.05
2022-08-25T09:16:38.144Z,4.40
2022-08-25T09:20:02.158Z,4.20
2022-08-25T09:22:47.836Z,5.65
2022-08-25T09:25:52.374Z,6.20
2022-08-25T09:28:33.873Z,7.03
2022-08-25T09:31:29.612Z,6.05
2022-08-25T09:34:02.298Z,5.50
2022-08-25T09:36:35.450Z,6.28
2022-08-25T09:39:06.860Z,5.53
2022-08-25T09:41:53.085Z,5.28
2022-08-25T09:44:28.138Z,5.28
2022-08-25T09:47:28.024Z,5.95
2022-08-25T09:50:04.466Z,6.15
2022-08-25T09:52:41.367Z,5.88
2022-08-25T09:55:09.405Z,6.65
2022-08-25T09:57:43.433Z,7.03
2022-08-25T10:00:35.103Z,6.50
2022-08-25T10:03:24.938Z,5.65
2022-08-25T10:05:56.899Z,5.93
2022-08-25T10:08:55.668Z,6.22
2022-08-25T10:11:47.688Z,5.97
2022-08-25T10:14:36.449Z,5.93
2022-08-25T10:17:31.490Z,6.22
2022-08-25T10:20:35.147Z,5.47
2022-08-25T10:23:15.212Z,6.00
2022-08-25T10:25:59.433Z,5.82
2022-08-25T10:29:05.300Z,6.05
2022-08-25T10:31:56.651Z,7.13
2022-08-25T10:34:53.946Z,5.57
2022-08-25T10:38:00.878Z,5.90
2022-08-25T10:40:46.276Z,6.07
2022-08-25T10:43:49.844Z,5.35
2022-08-25T10:47:05.948Z,5.50
2022-08-25T10:49:49.963Z,5.40
2022-08-25T10:52:58.233Z,5.45
2022-08-25T10:55:50.448Z,5.93
2022-08-25T10:58:35.514Z,5.30
2022-08-25T11:01:15.774Z,6.10
2022-08-25T11:04:05.107Z,6.45
2022-08-25T11:06:52.645Z,6.53
2022-08-25T11:09:30.846Z,6.68
2022-08-25T11:12:19.058Z,6.68
2022-08-25T11:14:54.326Z,5.28
2022-08-25T11:17:52.759Z,5.85
2022-08-25T11:20:59.904Z,4.75
2022-08-25T11:23:49.479Z,6.03
2022-08-25T11:26:31.905Z,5.63
2022-08-25T11:29:16.627Z,6.95
2022-08-25T11:31:53.564Z,6.75
2022-08-25T11:34:22.973Z,6.10
2022-08-25T11:37:01.332Z,6.28
2022-08-25T11:40:08.750Z,6.05
2022-08-25T11:42:43.046Z,5.53
2022-08-25T11:45:43.750Z,4.90
2022-08-25T11:48:42.992Z,5.82
2022-08-25T11:51:39.834Z,5.68
2022-08-25T11:54:36.538Z,4.65
2022-08-25T11:57:13.165Z,4.72
2022-08-25T11:59:53.276Z,5.07
2022-08-25T12:02:47.680Z,5.90
2022-08-25T12:05:22.113Z,5.07
2022-08-25T12:08:26.688Z,5.38
2022-08-25T12:11:10.910Z,4.57
2022-08-25T12:13:50.941Z,4.25
2022-08-25T12:17:00.429Z,4.18
2022-08-25T12:19:36.947Z,3.50
2022-08-25T12:22:05.729Z,3.85
2022-08-25T12:24:48.140Z,4.10
2022-08-25T12:27:34.305Z,4.13
2022-08-25T12:30:29.205Z,3.97
2022-08-25T12:33:37.269Z,4.13
2022-08-25T12:36:11.462Z,4.88
2022-08-25T12:38:52.427Z,4.20
2022-08-25T12:41:33.568Z,3.67
2022-08-25T12:44:41.433Z,4.38
2022-08-25T12:47:27.246Z,3.90
2022-08-25T12:50:35.235Z,4.15
2022-08-25T12:53:35.217Z,4.63
2022-08-25T12:56:07.949Z,3.85
2022-08-25T12:59:03.762Z,4.25
2022-08-25T13:02:03.149Z,4.10
2022-08-25T13:04:52.411Z,4.40
2022-08-25T13:07:35.754Z,4.30
2022-08-25T13:10:44.112Z,3.65
2022-08-25T13:13:31.572Z,3.72
2022-08-25T13:16:06.641Z,4.43
2022-08-25T13:18:39.809Z,4.32
2022-08-25T13:21:07.376Z,4.60
2022-08-25T13:23:41.843Z,6.35
2022-08-25T13:26:22.480Z,5.68
2022-08-25T13:29:10.925Z,5.88
2022-08-25T13:31:55.721Z,5.32
2022-08-25T13:34:34.980Z,4.05
2022-08-25T13:37:30.545Z,4.18
2022-08-25T13:40:18.797Z,4.03
2022-08-25T13:42:56.104Z,4.50
2022-08-25T13:45:31.780Z,3.95
2022-08-25T13:47:59.600Z,5.13
2022-08-25T13:50:27.225Z,4.03
2022-08-25T13:53:11.393Z,4.57
2022-08-25T13:55:53.868Z,3.85
2022-08-25T13:58:39.321Z,3.78
2022-08-25T14:01:48.994Z,3.88
2022-08-25T14:04:51.190Z,3.25
2022-08-25T14:07:22.784Z,3.28
2022-08-25T14:10:34.834Z,3.83
2022-08-25T14:13:36.474Z,3.80
2022-08-25T14:16:38.797Z,3.72
2022-08-25T14:19:20.255Z,3.85
2022-08-25T14:21:49.626Z,4.22
2022-08-25T14:24:23.790Z,4.30
2022-08-25T14:26:54.043Z,3.58
2022-08-25T14:29:22.496Z,3.35
2022-08-25T14:31:52.505Z,3.58
2022-08-25T14:34:26.143Z,3.42
2022-08-25T14:36:57.626Z,3.47
2022-08-25T14:39:29.416Z,3.33
2022-08-25T14:41:58.403Z,3.80
2022-08-25T14:44:25.616Z,3.97
2022-08-25T14:47:00.318Z,3.97
2022-08-25T14:49:36.553Z,4.20
2022-08-25T14:52:22.708Z,3.85
2022-08-25T14:54:50.756Z,4.10
2022-08-25T14:57:18.464Z,3.80
2022-08-25T14:59:46.332Z,4.50
2022-08-25T15:02:21.000Z,4.30
2022-08-25T15:04:55.680Z,3.63
2022-08-25T15:07:43.104Z,4.05
2022-08-25T15:10:13.602Z,3.88
2022-08-25T15:12:47.841Z,4.40
2022-08-25T15:15:16.752Z,4.53
2022-08-25T15:17:47.327Z,4.60
2022-08-25T15:20:16.816Z,3.70
2022-08-25T15:22:45.516Z,3.97
2022-08-25T15:25:13.019Z,3.88
2022-08-25T15:27:40.969Z,3.90
2022-08-25T15:30:10.062Z,4.15
2022-08-25T15:32:41.195Z,3.83
2022-08-25T15:35:11.867Z,3.50
2022-08-25T15:37:43.037Z,3.67
2022-08-25T15:40:11.007Z,5.00
2022-08-25T15:42:39.414Z,3.80
2022-08-25T15:45:11.575Z,4.07
2022-08-25T15:47:38.958Z,4.25
2022-08-25T15:50:16.252Z,4.30
2022-08-25T15:52:46.401Z,4.25
2022-08-25T15:55:17.242Z,4.65
2022-08-25T15:57:44.969Z,4.35
2022-08-25T16:00:16.776Z,4.30
2022-08-25T16:02:46.240Z,4.18
2022-08-25T16:05:16.422Z,3.58
2022-08-25T16:07:46.199Z,4.38
2022-08-25T16:10:19.716Z,4.40
2022-08-25T16:12:47.543Z,4.20
2022-08-25T16:15:16.136Z,3.95
2022-08-25T16:17:45.966Z,3.75
2022-08-25T16:20:17.266Z,4.18
2022-08-25T16:22:45.526Z,4.15
2022-08-25T16:25:14.123Z,4.90
2022-08-25T16:27:41.547Z,4.03
2022-08-25T16:30:17.570Z,4.13
2022-08-25T16:32:46.768Z,4.00
2022-08-25T16:35:14.521Z,4.50
2022-08-25T16:37:41.810Z,4.93
2022-08-25T16:40:14.765Z,4.72
2022-08-25T16:42:42.661Z,4.35
2022-08-25T16:45:10.450Z,4.38
2022-08-25T16:47:38.205Z,4.03
2022-08-25T16:50:10.818Z,4.78
2022-08-25T16:52:58.302Z,4.18
2022-08-25T16:55:38.913Z,4.45
2022-08-25T16:58:13.377Z,4.40
2022-08-25T17:00:41.348Z,4.45
2022-08-25T17:03:11.218Z,4.47
2022-08-25T17:05:43.351Z,3.92
2022-08-25T17:08:30.581Z,5.10
2022-08-25T17:11:14.202Z,4.60
2022-08-25T17:13:50.097Z,4.70
2022-08-25T17:16:19.821Z,5.60
2022-08-25T17:18:48.583Z,4.85
2022-08-25T17:21:24.569Z,5.00
2022-08-25T17:23:54.354Z,5.10
2022-08-25T17:26:28.079Z,5.55
2022-08-25T17:29:01.295Z,4.82
2022-08-25T17:31:30.108Z,5.40
2022-08-25T17:33:58.707Z,5.65
2022-08-25T17:36:27.086Z,4.55
2022-08-25T17:38:56.751Z,5.68
2022-08-25T17:41:25.132Z,5.43
2022-08-25T17:43:52.370Z,5.30
2022-08-25T17:46:21.582Z,5.32
2022-08-25T17:48:49.088Z,5.50
2022-08-25T17:51:16.505Z,5.38
2022-08-25T17:53:44.947Z,5.55
2022-08-25T17:56:18.567Z,4.57
2022-08-25T17:58:47.784Z,4.20
2022-08-25T18:01:28.746Z,4.95
2022-08-25T18:03:57.494Z,5.07
2022-08-25T18:06:26.789Z,4.72
2022-08-25T18:08:58.724Z,5.35
2022-08-25T18:11:28.858Z,5.20
2022-08-25T18:13:58.264Z,5.15
2022-08-25T18:16:27.025Z,5.90
2022-08-25T18:18:55.813Z,5.82
2022-08-25T18:21:25.630Z,6.03
2022-08-25T18:23:58.883Z,5.53
2022-08-25T18:26:27.145Z,6.28
2022-08-25T18:28:54.611Z,6.45
2022-08-25T18:31:22.276Z,6.07
2022-08-25T18:33:51.010Z,6.57
2022-08-25T18:36:22.959Z,6.30
2022-08-25T18:39:09.597Z,6.82
2022-08-25T18:41:42.558Z,6.60
2022-08-25T18:44:11.191Z,6.50
2022-08-25T18:46:40.297Z,6.13
2022-08-25T18:49:08.530Z,6.30
2022-08-25T18:51:36.531Z,6.18
2022-08-25T18:54:05.357Z,7.15
2022-08-25T18:56:34.694Z,6.78
2022-08-25T18:59:02.722Z,6.88
2022-08-25T19:01:30.484Z,6.22
2022-08-25T19:03:57.988Z,6.72
2022-08-25T19:06:25.716Z,5.70
2022-08-25T19:08:53.543Z,6.32
2022-08-25T19:11:22.251Z,7.22
2022-08-25T19:13:51.576Z,6.93
2022-08-25T19:16:40.968Z,6.82
2022-08-25T19:19:13.215Z,6.00
2022-08-25T19:21:41.943Z,5.20
2022-08-25T19:24:12.267Z,5.43
2022-08-25T19:26:40.552Z,5.60
2022-08-25T19:29:17.501Z,5.72
2022-08-25T19:31:47.935Z,5.93
2022-08-25T19:34:28.220Z,5.72
2022-08-25T19:37:01.292Z,5.30
2022-08-25T19:39:30.549Z,5.72
2022-08-25T19:41:58.211Z,5.38
2022-08-25T19:44:28.235Z,6.50
2022-08-25T19:46:57.158Z,5.03
2022-08-25T19:49:31.754Z,6.00
2022-08-25T19:52:03.165Z,5.22
2022-08-25T19:54:44.614Z,4.63
2022-08-25T19:57:20.774Z,5.03
2022-08-25T19:59:56.196Z,5.82
2022-08-25T20:02:28.322Z,6.70
2022-08-25T20:05:00.007Z,6.60
2022-08-25T20:07:31.076Z,5.97
2022-08-25T20:10:00.457Z,7.20
2022-08-25T20:12:28.712Z,6.82
2022-08-25T20:14:56.759Z,6.35
2022-08-25T20:17:26.169Z,6.43
2022-08-25T20:19:59.881Z,7.28
2022-08-25T20:22:31.728Z,6.38
2022-08-25T20:25:07.348Z,6.57
2022-08-25T20:27:52.402Z,7.45
2022-08-25T20:30:28.992Z,7.13
2022-08-25T20:32:58.238Z,5.43
2022-08-25T20:35:29.222Z,5.18
2022-08-25T20:37:59.207Z,5.25
2022-08-25T20:40:30.490Z,5.65
2022-08-25T20:43:03.402Z,6.28
2022-08-25T20:45:31.346Z,6.75
2022-08-25T20:47:58.783Z,6.85
2022-08-25T20:50:27.907Z,6.90
2022-08-25T20:52:56.871Z,7.10
2022-08-25T20:55:24.666Z,6.68
2022-08-25T20:57:53.932Z,7.68
2022-08-25T21:00:23.454Z,7.43
2022-08-25T21:02:53.006Z,8.32
2022-08-25T21:05:20.415Z,7.03
2022-08-25T21:07:48.951Z,7.65
2022-08-25T21:10:16.923Z,7.35
2022-08-25T21:12:45.309Z,7.75
2022-08-25T21:15:18.107Z,7.22
2022-08-25T21:17:50.850Z,7.25
2022-08-25T21:20:18.479Z,5.97
2022-08-25T21:22:45.753Z,6.07
2022-08-25T21:25:13.673Z,6.18
2022-08-25T21:27:41.388Z,5.75
2022-08-25T21:30:12.384Z,6.10
2022-08-25T21:32:39.743Z,6.40
2022-08-25T21:35:23.134Z,5.82
2022-08-25T21:37:53.357Z,6.88
2022-08-25T21:40:23.036Z,6.15
2022-08-25T21:42:52.399Z,7.78
2022-08-25T21:45:20.961Z,8.05
2022-08-25T21:47:49.289Z,8.70
2022-08-25T21:50:16.858Z,8.02
2022-08-25T21:52:44.413Z,8.80
2022-08-25T21:55:15.774Z,8.48
2022-08-25T21:57:44.157Z,8.60
2022-08-25T22:00:13.637Z,7.50
2022-08-25T22:02:43.858Z,7.57
2022-08-25T22:05:12.251Z,7.00
2022-08-25T22:07:43.924Z,7.38
2022-08-25T22:10:16.768Z,7.30
2022-08-25T22:12:47.377Z,7.90
2022-08-25T22:15:17.837Z,8.15
2022-08-25T22:17:48.111Z,8.00
2022-08-25T22:20:18.220Z,8.45
2022-08-25T22:22:45.772Z,8.73
2022-08-25T22:25:14.152Z,8.95
2022-08-25T22:27:41.981Z,8.35
2022-08-25T22:30:10.767Z,9.18
2022-08-25T22:32:38.217Z,8.30
2022-08-25T22:35:08.086Z,9.00
2022-08-25T22:37:36.933Z,8.43
2022-08-25T22:40:05.845Z,8.60
2022-08-25T22:42:33.362Z,8.70
2022-08-25T22:45:01.286Z,8.30
2022-08-25T22:47:28.725Z,7.43
2022-08-25T22:49:58.597Z,7.95
2022-08-25T22:52:33.736Z,8.60
2022-08-25T22:55:03.169Z,7.90
2022-08-25T22:57:30.698Z,7.20
2022-08-25T22:59:59.332Z,7.53
2022-08-25T23:02:30.306Z,8.40
2022-08-25T23:04:57.978Z,9.77
2022-08-25T23:07:29.311Z,8.88
2022-08-25T23:10:02.651Z,7.50
2022-08-25T23:12:30.756Z,7.55
2022-08-25T23:14:58.105Z,8.30
2022-08-25T23:17:25.615Z,8.30
2022-08-25T23:19:53.042Z,7.80
2022-08-25T23:22:20.311Z,8.20
2022-08-25T23:24:53.471Z,8.15
2022-08-25T23:27:22.009Z,8.25
2022-08-25T23:29:51.050Z,7.95
2022-08-25T23:32:18.865Z,7.22
2022-08-25T23:34:47.191Z,6.50
2022-08-25T23:37:18.379Z,6.43
2022-08-25T23:39:49.856Z,6.32
2022-08-25T23:42:19.844Z,6.38
2022-08-25T23:44:49.357Z,7.70
2022-08-25T23:47:18.473Z,7.68
2022-08-25T23:49:46.265Z,7.05
2022-08-25T23:52:17.336Z,7.13
2022-08-25T23:54:46.285Z,6.20
2022-08-25T23:57:13.605Z,7.80
2022-08-25T23:59:42.304Z,7.50
